createdAt,value
2023-07-19T00:00:53.087Z,18.00
2023-07-19T00:03:21.004Z,17.90
2023-07-19T00:05:47.848Z,18.50
2023-07-19T00:08:15.546Z,17.90
2023-07-19T00:10:42.504Z,17.80
2023-07-19T00:13:09.287Z,17.90
2023-07-19T00:15:36.263Z,17.80
2023-07-19T00:18:03.203Z,17.80
2023-07-19T00:20:30.072Z,17.80
2023-07-19T00:22:56.844Z,17.70
2023-07-19T00:25:23.879Z,18.40
2023-07-19T00:27:50.845Z,17.80
2023-07-19T00:30:17.889Z,17.80
2023-07-19T00:32:44.740Z,17.80
2023-07-19T00:35:11.654Z,17.80
2023-07-19T00:37:38.533Z,17.80
2023-07-19T00:40:06.673Z,18.60
2023-07-19T00:42:33.774Z,17.80
2023-07-19T00:45:00.552Z,17.70
2023-07-19T00:47:28.640Z,17.90
2023-07-19T00:49:55.930Z,18.20
2023-07-19T00:52:23.310Z,17.70
2023-07-19T00:54:50.354Z,18.40
2023-07-19T00:57:17.422Z,18.40
2023-07-19T00:59:44.595Z,18.10
2023-07-19T01:02:15.131Z,17.60
2023-07-19T01:04:42.433Z,17.60
2023-07-19T01:07:09.440Z,17.60
2023-07-19T01:09:36.538Z,17.50
2023-07-19T01:12:03.751Z,17.50
2023-07-19T01:14:30.701Z,17.50
2023-07-19T01:16:57.456Z,17.40
2023-07-19T01:19:24.427Z,17.30
2023-07-19T01:21:52.010Z,17.30
2023-07-19T01:24:19.102Z,18.00
2023-07-19T01:26:46.280Z,18.50
2023-07-19T01:29:13.159Z,17.40
2023-07-19T01:31:40.277Z,17.40
2023-07-19T01:34:07.399Z,17.90
2023-07-19T01:36:34.332Z,17.50
2023-07-19T01:39:01.212Z,17.40
2023-07-19T01:41:28.081Z,17.40
2023-07-19T01:43:55.074Z,17.30
2023-07-19T01:46:21.901Z,17.30
2023-07-19T01:48:48.808Z,17.50
2023-07-19T01:51:15.536Z,17.30
2023-07-19T01:53:42.318Z,17.30
2023-07-19T01:56:34.173Z,17.30
2023-07-19T01:59:00.980Z,17.20
2023-07-19T02:01:27.900Z,17.10
2023-07-19T02:03:54.782Z,17.10
2023-07-19T02:06:21.641Z,17.10
2023-07-19T02:08:48.579Z,17.00
2023-07-19T02:11:15.464Z,17.00
2023-07-19T02:13:42.300Z,17.00
2023-07-19T02:16:09.260Z,17.00
2023-07-19T02:18:36.281Z,17.00
2023-07-19T02:21:03.875Z,17.00
2023-07-19T02:23:30.758Z,17.10
2023-07-19T02:25:57.637Z,17.60
2023-07-19T02:28:24.687Z,17.00
2023-07-19T02:30:51.645Z,16.90
2023-07-19T02:33:18.668Z,16.90
2023-07-19T02:35:45.566Z,17.50
2023-07-19T02:38:12.541Z,16.80
2023-07-19T02:40:40.143Z,18.40
2023-07-19T02:43:07.049Z,16.90
2023-07-19T02:45:36.982Z,16.80
2023-07-19T02:48:04.126Z,16.80
2023-07-19T02:50:31.128Z,16.80
2023-07-19T02:52:58.719Z,16.70
2023-07-19T02:55:25.948Z,16.80
2023-07-19T02:57:53.044Z,16.90
2023-07-19T03:00:19.936Z,16.80
2023-07-19T03:02:48.263Z,16.80
2023-07-19T03:05:17.327Z,16.80
2023-07-19T03:07:44.687Z,16.90
2023-07-19T03:10:11.733Z,16.70
2023-07-19T03:12:38.657Z,17.00
2023-07-19T03:15:06.094Z,17.90
2023-07-19T03:17:33.007Z,16.80
2023-07-19T03:20:00.187Z,16.80
2023-07-19T03:22:27.057Z,16.80
2023-07-19T03:24:54.052Z,16.80
2023-07-19T03:27:20.841Z,16.80
2023-07-19T03:29:47.651Z,16.80
2023-07-19T03:32:14.469Z,16.70
2023-07-19T03:34:41.277Z,16.70
2023-07-19T03:37:08.235Z,16.60
2023-07-19T03:39:34.973Z,17.70
2023-07-19T03:42:01.751Z,16.60
2023-07-19T03:44:28.517Z,16.60
2023-07-19T03:46:55.378Z,16.60
2023-07-19T03:49:22.337Z,16.60
2023-07-19T03:51:49.285Z,16.60
2023-07-19T03:54:16.353Z,16.60
2023-07-19T03:56:43.124Z,17.00
2023-07-19T03:59:10.230Z,16.50
2023-07-19T04:01:38.080Z,16.70
2023-07-19T04:04:05.049Z,16.50
2023-07-19T04:06:32.102Z,16.50
2023-07-19T04:08:58.891Z,17.10
2023-07-19T04:11:25.720Z,16.50
2023-07-19T04:13:52.576Z,16.50
2023-07-19T04:16:19.606Z,16.90
2023-07-19T04:18:46.420Z,16.50
2023-07-19T04:21:13.389Z,17.70
2023-07-19T04:23:40.393Z,16.60
2023-07-19T04:26:07.288Z,17.00
2023-07-19T04:28:34.121Z,16.70
2023-07-19T04:31:01.131Z,16.80
2023-07-19T04:33:29.055Z,17.00
2023-07-19T04:35:56.024Z,16.90
2023-07-19T04:38:23.005Z,16.90
2023-07-19T04:40:49.863Z,17.10
2023-07-19T04:43:16.747Z,17.40
2023-07-19T04:45:46.380Z,17.10
2023-07-19T04:48:13.307Z,17.10
2023-07-19T04:50:40.192Z,18.80
2023-07-19T04:53:07.117Z,17.20
2023-07-19T04:55:34.269Z,17.20
2023-07-19T04:58:01.049Z,17.30
2023-07-19T05:00:28.666Z,17.30
2023-07-19T05:02:55.760Z,17.40
2023-07-19T05:05:23.277Z,17.40
2023-07-19T05:07:51.168Z,17.50
2023-07-19T05:10:18.007Z,17.60
2023-07-19T05:12:44.883Z,17.60
2023-07-19T05:15:11.900Z,17.60
2023-07-19T05:17:38.947Z,17.70
2023-07-19T05:20:07.309Z,19.50
2023-07-19T05:22:34.475Z,17.80
2023-07-19T05:25:01.334Z,18.00
2023-07-19T05:27:28.118Z,17.90
2023-07-19T05:29:54.936Z,18.00
2023-07-19T05:32:23.387Z,18.80
2023-07-19T05:34:50.782Z,18.20
2023-07-19T05:37:17.739Z,18.40
2023-07-19T05:39:44.794Z,20.30
2023-07-19T05:42:12.088Z,18.60
2023-07-19T05:44:38.912Z,18.70
2023-07-19T05:47:06.053Z,18.80
2023-07-19T05:49:32.993Z,19.10
2023-07-19T05:51:59.828Z,19.20
2023-07-19T05:54:27.167Z,19.40
2023-07-19T05:56:54.151Z,20.10
2023-07-19T05:59:21.062Z,20.40
2023-07-19T06:01:47.989Z,20.10
2023-07-19T06:04:16.066Z,20.30
2023-07-19T06:06:43.126Z,20.70
2023-07-19T06:09:10.278Z,21.30
2023-07-19T06:11:37.141Z,21.40
2023-07-19T06:14:04.629Z,21.70
2023-07-19T06:16:31.696Z,22.10
2023-07-19T06:18:58.599Z,23.20
2023-07-19T06:21:26.133Z,22.80
2023-07-19T06:23:53.231Z,23.10
2023-07-19T06:26:20.052Z,23.90
2023-07-19T06:28:46.844Z,23.60
2023-07-19T06:31:13.676Z,23.80
2023-07-19T06:33:40.578Z,24.30
2023-07-19T06:36:07.610Z,24.00
2023-07-19T06:38:37.997Z,24.20
2023-07-19T06:41:05.265Z,24.30
2023-07-19T06:43:32.317Z,24.40
2023-07-19T06:45:59.408Z,24.70
2023-07-19T06:48:26.350Z,24.70
2023-07-19T06:50:53.457Z,24.70
2023-07-19T06:53:20.392Z,24.70
2023-07-19T06:55:47.251Z,24.40
2023-07-19T06:58:14.141Z,24.30
2023-07-19T07:00:41.205Z,24.60
2023-07-19T07:03:08.317Z,24.60
2023-07-19T07:05:35.334Z,24.70
2023-07-19T07:08:02.191Z,24.60
2023-07-19T07:10:29.096Z,24.60
2023-07-19T07:12:57.210Z,24.40
2023-07-19T07:15:24.026Z,24.30
2023-07-19T07:17:51.069Z,24.00
2023-07-19T07:20:18.570Z,23.90
2023-07-19T07:22:45.589Z,23.80
2023-07-19T07:25:12.775Z,23.70
2023-07-19T07:27:39.600Z,23.60
2023-07-19T07:30:08.960Z,23.50
2023-07-19T07:32:36.020Z,23.40
2023-07-19T07:35:04.364Z,23.30
2023-07-19T07:37:31.188Z,23.30
2023-07-19T07:39:58.139Z,23.20
2023-07-19T07:42:25.668Z,23.30
2023-07-19T07:44:52.600Z,23.40
2023-07-19T07:47:19.547Z,23.40
2023-07-19T07:49:47.862Z,23.30
2023-07-19T07:52:16.610Z,23.20
2023-07-19T07:54:43.470Z,23.20
2023-07-19T07:57:10.446Z,23.70
2023-07-19T07:59:37.394Z,23.20
2023-07-19T08:02:06.490Z,23.20
2023-07-19T08:04:34.357Z,23.20
2023-07-19T08:07:01.420Z,23.20
2023-07-19T08:09:28.964Z,23.70
2023-07-19T08:11:56.065Z,23.50
2023-07-19T08:14:23.359Z,23.20
2023-07-19T08:16:51.878Z,23.20
2023-07-19T08:19:18.841Z,23.40
2023-07-19T08:21:45.791Z,23.50
2023-07-19T08:24:12.635Z,23.70
2023-07-19T08:26:40.882Z,23.70
2023-07-19T08:29:07.873Z,23.80
2023-07-19T08:31:35.617Z,23.80
2023-07-19T08:34:02.689Z,23.80
2023-07-19T08:36:29.633Z,23.80
2023-07-19T08:38:57.766Z,23.80
2023-07-19T08:41:28.352Z,23.60
2023-07-19T08:43:56.624Z,23.70
2023-07-19T08:46:23.995Z,24.10
2023-07-19T08:48:51.196Z,24.40
2023-07-19T08:51:19.205Z,24.30
2023-07-19T08:53:46.405Z,24.30
2023-07-19T08:56:15.499Z,24.10
2023-07-19T08:58:44.505Z,24.10
2023-07-19T09:01:13.179Z,24.40
2023-07-19T09:03:40.184Z,24.40
2023-07-19T09:06:07.260Z,24.40
2023-07-19T09:08:41.484Z,24.30
2023-07-19T09:11:09.373Z,24.20
2023-07-19T09:13:39.961Z,24.20
2023-07-19T09:16:07.993Z,24.30
2023-07-19T09:18:39.339Z,24.30
2023-07-19T09:21:07.120Z,24.40
2023-07-19T09:23:38.363Z,24.50
2023-07-19T09:26:06.583Z,24.70
2023-07-19T09:28:37.059Z,24.60
2023-07-19T09:31:24.082Z,24.60
2023-07-19T09:33:57.039Z,24.50
2023-07-19T09:36:24.494Z,24.40
2023-07-19T09:38:54.179Z,24.60
2023-07-19T09:41:23.667Z,24.80
2023-07-19T09:43:54.255Z,24.80
2023-07-19T09:46:21.586Z,24.80
2023-07-19T09:48:48.601Z,24.90
2023-07-19T09:51:17.762Z,24.90
2023-07-19T09:53:47.540Z,24.90
2023-07-19T09:56:14.881Z,24.70
2023-07-19T09:58:43.344Z,24.80
2023-07-19T10:01:10.450Z,25.00
2023-07-19T10:03:37.860Z,25.00
2023-07-19T10:06:04.747Z,25.00
2023-07-19T10:08:32.301Z,25.10
2023-07-19T10:11:01.832Z,25.20
2023-07-19T10:14:05.773Z,25.10
2023-07-19T10:16:36.840Z,25.30
2023-07-19T10:19:14.167Z,25.50
2023-07-19T10:22:02.575Z,25.40
2023-07-19T10:24:30.194Z,25.20
2023-07-19T10:27:00.046Z,25.00
2023-07-19T10:29:26.834Z,25.00
2023-07-19T10:31:53.570Z,25.10
2023-07-19T10:34:43.655Z,25.20
2023-07-19T10:37:12.328Z,25.30
2023-07-19T10:39:39.158Z,25.50
2023-07-19T10:42:07.365Z,25.70
2023-07-19T10:44:34.250Z,25.80
2023-07-19T10:47:01.221Z,25.90
2023-07-19T10:49:29.122Z,25.90
2023-07-19T10:51:57.670Z,25.90
2023-07-19T10:54:25.252Z,25.80
2023-07-19T10:56:53.661Z,25.70
2023-07-19T10:59:21.245Z,25.90
2023-07-19T11:01:49.920Z,26.10
2023-07-19T11:04:19.781Z,26.40
2023-07-19T11:07:03.241Z,26.40
2023-07-19T11:09:31.232Z,26.40
2023-07-19T11:11:58.801Z,26.50
2023-07-19T11:14:33.490Z,26.60
2023-07-19T11:17:01.078Z,26.50
2023-07-19T11:19:36.919Z,26.70
2023-07-19T11:22:05.420Z,26.70
2023-07-19T11:24:42.561Z,26.80
2023-07-19T11:27:09.578Z,26.90
2023-07-19T11:29:36.776Z,26.70
2023-07-19T11:32:24.468Z,26.30
2023-07-19T11:34:57.485Z,26.40
2023-07-19T11:37:35.127Z,26.50
2023-07-19T11:40:06.647Z,26.40
2023-07-19T11:42:39.720Z,26.30
2023-07-19T11:45:20.837Z,26.10
2023-07-19T11:47:55.656Z,25.80
2023-07-19T11:50:24.396Z,26.00
2023-07-19T11:52:55.928Z,25.70
2023-07-19T11:55:23.954Z,25.70
2023-07-19T11:57:54.297Z,25.50
2023-07-19T12:00:23.822Z,25.50
2023-07-19T12:02:52.119Z,25.50
2023-07-19T12:05:21.977Z,25.60
2023-07-19T12:07:52.808Z,25.70
2023-07-19T12:10:20.991Z,25.30
2023-07-19T12:12:51.235Z,25.40
2023-07-19T12:15:19.464Z,25.30
2023-07-19T12:17:47.528Z,25.30
2023-07-19T12:20:14.590Z,25.20
2023-07-19T12:22:43.415Z,25.30
2023-07-19T12:26:12.966Z,25.50
2023-07-19T12:28:39.716Z,26.00
2023-07-19T12:31:08.026Z,26.30
2023-07-19T12:33:35.222Z,26.30
2023-07-19T12:36:02.167Z,26.40
2023-07-19T12:38:29.409Z,26.50
2023-07-19T12:40:56.234Z,26.60
2023-07-19T12:43:23.263Z,26.50
2023-07-19T12:45:50.411Z,26.40
2023-07-19T12:48:17.284Z,26.60
2023-07-19T12:50:44.194Z,26.60
2023-07-19T12:54:10.964Z,26.40
2023-07-19T12:56:37.974Z,26.50
2023-07-19T12:59:05.074Z,26.80
2023-07-19T13:01:33.983Z,27.00
2023-07-19T13:04:01.976Z,27.10
2023-07-19T13:10:16.904Z,26.90
2023-07-19T13:12:43.909Z,26.90
2023-07-19T13:15:11.615Z,26.70
2023-07-19T13:17:39.945Z,27.00
2023-07-19T13:20:11.048Z,26.80
2023-07-19T13:22:39.207Z,27.00
2023-07-19T13:25:06.952Z,27.10
2023-07-19T13:27:34.786Z,27.00
2023-07-19T13:30:01.801Z,27.10
2023-07-19T13:32:28.803Z,27.70
2023-07-19T13:34:56.533Z,27.80
2023-07-19T13:37:24.187Z,27.50
2023-07-19T13:40:11.064Z,27.30
2023-07-19T13:42:39.254Z,27.00
2023-07-19T13:45:06.881Z,27.10
2023-07-19T13:47:34.037Z,27.00
2023-07-19T13:50:00.931Z,26.90
2023-07-19T13:52:28.257Z,26.60
2023-07-19T13:54:55.106Z,26.30
2023-07-19T13:57:22.211Z,26.40
2023-07-19T13:59:49.104Z,26.50
2023-07-19T14:02:16.094Z,26.60
2023-07-19T14:04:43.308Z,26.60
2023-07-19T14:07:10.313Z,28.10
2023-07-19T14:09:37.187Z,26.60
2023-07-19T14:12:04.432Z,26.90
2023-07-19T14:14:45.176Z,27.30
2023-07-19T14:17:12.662Z,27.50
2023-07-19T14:19:39.967Z,27.50
2023-07-19T14:22:08.002Z,27.20
2023-07-19T14:24:34.928Z,27.10
2023-07-19T14:27:02.018Z,27.00
2023-07-19T14:29:29.737Z,26.70
2023-07-19T14:31:56.875Z,26.60
2023-07-19T14:34:26.769Z,26.60
2023-07-19T14:36:53.788Z,26.90
2023-07-19T14:39:21.352Z,27.10
2023-07-19T14:41:54.867Z,27.30
2023-07-19T14:44:24.612Z,27.40
2023-07-19T14:46:52.269Z,27.50
2023-07-19T14:49:20.301Z,27.60
2023-07-19T14:51:47.256Z,27.60
2023-07-19T14:54:14.512Z,27.60
2023-07-19T14:56:41.387Z,28.00
2023-07-19T14:59:08.332Z,27.70
2023-07-19T15:01:35.860Z,27.60
2023-07-19T15:04:03.273Z,27.30
2023-07-19T15:08:58.465Z,27.50
2023-07-19T15:11:25.528Z,27.60
2023-07-19T15:13:52.528Z,27.60
2023-07-19T15:16:19.522Z,27.40
2023-07-19T15:18:47.240Z,27.20
2023-07-19T15:21:14.924Z,27.30
2023-07-19T15:23:49.932Z,27.60
2023-07-19T15:26:32.270Z,27.60
2023-07-19T15:29:01.212Z,27.70
2023-07-19T15:31:29.033Z,27.90
2023-07-19T15:33:56.129Z,28.10
2023-07-19T15:36:23.969Z,28.10
2023-07-19T15:38:55.613Z,27.90
2023-07-19T15:41:24.279Z,27.90
2023-07-19T15:43:51.551Z,27.90
2023-07-19T15:46:18.568Z,27.90
2023-07-19T15:48:46.955Z,27.70
2023-07-19T15:51:14.340Z,27.70
2023-07-19T15:53:41.721Z,27.60
2023-07-19T15:56:10.109Z,27.30
2023-07-19T15:58:37.745Z,27.20
2023-07-19T16:01:07.338Z,27.20
2023-07-19T16:03:35.649Z,27.40
2023-07-19T16:06:04.114Z,27.60
2023-07-19T16:08:31.449Z,27.70
2023-07-19T16:10:58.803Z,27.70
2023-07-19T16:13:25.634Z,27.60
2023-07-19T16:15:52.652Z,27.30
2023-07-19T16:18:19.573Z,26.80
2023-07-19T16:20:47.011Z,26.30
2023-07-19T16:23:15.485Z,26.20
2023-07-19T16:25:42.749Z,26.30
2023-07-19T16:28:09.699Z,26.20
2023-07-19T16:30:36.591Z,26.20
2023-07-19T16:33:03.563Z,26.10
2023-07-19T16:35:30.466Z,26.00
2023-07-19T16:37:57.383Z,25.80
2023-07-19T16:40:24.267Z,25.50
2023-07-19T16:42:51.132Z,25.30
2023-07-19T16:45:18.066Z,25.40
2023-07-19T16:47:45.028Z,25.30
2023-07-19T16:50:13.256Z,25.20
2023-07-19T16:52:41.614Z,25.30
2023-07-19T16:55:10.985Z,25.20
2023-07-19T16:57:40.765Z,25.00
2023-07-19T17:00:17.107Z,24.70
2023-07-19T17:02:45.484Z,24.40
2023-07-19T17:05:12.499Z,24.20
2023-07-19T17:07:39.592Z,24.20
2023-07-19T17:10:06.807Z,24.30
2023-07-19T17:12:33.745Z,24.30
2023-07-19T17:15:00.624Z,24.30
2023-07-19T17:17:28.758Z,24.30
2023-07-19T17:19:55.702Z,24.30
2023-07-19T17:22:23.376Z,24.00
2023-07-19T17:24:50.416Z,24.00
2023-07-19T17:27:17.200Z,24.10
2023-07-19T17:29:44.101Z,24.00
2023-07-19T17:32:11.034Z,24.10
2023-07-19T17:34:38.532Z,24.10
2023-07-19T17:37:05.984Z,24.20
2023-07-19T17:39:32.943Z,24.20
2023-07-19T17:41:59.862Z,24.20
2023-07-19T17:44:26.789Z,24.20
2023-07-19T17:46:54.365Z,24.10
2023-07-19T17:49:21.415Z,23.80
2023-07-19T17:51:48.692Z,23.80
2023-07-19T17:54:15.568Z,23.70
2023-07-19T17:56:42.662Z,23.70
2023-07-19T17:59:10.012Z,23.60
2023-07-19T18:01:37.325Z,23.50
2023-07-19T18:04:04.727Z,23.40
2023-07-19T18:06:31.652Z,23.30
2023-07-19T18:08:58.552Z,23.20
2023-07-19T18:11:25.540Z,23.10
2023-07-19T18:13:52.818Z,23.10
2023-07-19T18:16:19.714Z,23.10
2023-07-19T18:18:46.710Z,23.00
2023-07-19T18:21:14.288Z,23.00
2023-07-19T18:23:41.538Z,22.90
2023-07-19T18:26:08.337Z,21.20
2023-07-19T18:28:36.260Z,23.00
2023-07-19T18:31:04.344Z,22.60
2023-07-19T18:33:31.511Z,22.60
2023-07-19T18:35:58.541Z,22.70
2023-07-19T18:38:25.481Z,22.40
2023-07-19T18:40:52.739Z,22.80
2023-07-19T18:43:19.877Z,22.60
2023-07-19T18:45:46.805Z,22.50
2023-07-19T18:48:13.809Z,22.30
2023-07-19T18:50:41.648Z,22.60
2023-07-19T18:53:08.598Z,22.10
2023-07-19T18:55:35.497Z,22.00
2023-07-19T18:58:02.376Z,21.90
2023-07-19T19:00:30.388Z,21.80
2023-07-19T19:02:57.498Z,22.10
2023-07-19T19:05:24.390Z,21.90
2023-07-19T19:07:52.212Z,21.80
2023-07-19T19:10:21.091Z,21.70
2023-07-19T19:12:49.002Z,21.70
2023-07-19T19:15:16.231Z,21.80
2023-07-19T19:17:43.286Z,21.80
2023-07-19T19:20:10.834Z,21.80
2023-07-19T19:22:38.232Z,21.90
2023-07-19T19:25:07.228Z,21.90
2023-07-19T19:27:34.410Z,21.80
2023-07-19T19:30:01.332Z,22.00
2023-07-19T19:32:28.606Z,21.70
2023-07-19T19:34:55.689Z,21.70
2023-07-19T19:37:22.701Z,21.50
2023-07-19T19:39:49.518Z,22.00
2023-07-19T19:42:17.213Z,21.50
2023-07-19T19:44:44.155Z,21.50
2023-07-19T19:47:13.269Z,21.40
2023-07-19T19:49:40.308Z,21.40
2023-07-19T19:52:07.776Z,21.40
2023-07-19T19:54:35.020Z,21.40
2023-07-19T19:57:08.035Z,21.30
2023-07-19T19:59:35.363Z,21.30
2023-07-19T20:04:32.253Z,21.30
2023-07-19T20:06:59.259Z,21.20
2023-07-19T20:12:00.044Z,21.00
2023-07-19T20:14:27.484Z,21.00
2023-07-19T20:16:55.241Z,21.00
2023-07-19T20:21:54.574Z,21.00
2023-07-19T20:24:26.755Z,20.80
2023-07-19T20:30:01.824Z,20.80
2023-07-19T20:34:56.603Z,20.60
2023-07-19T20:39:53.788Z,20.50
2023-07-19T20:42:20.844Z,20.50
2023-07-19T20:44:48.524Z,20.50
2023-07-19T20:47:16.013Z,20.50
2023-07-19T20:49:43.847Z,20.70
2023-07-19T20:52:10.798Z,20.40
2023-07-19T20:54:37.612Z,20.70
2023-07-19T20:57:04.796Z,20.60
2023-07-19T20:59:31.627Z,20.40
2023-07-19T21:01:58.668Z,20.60
2023-07-19T21:04:25.609Z,20.40
2023-07-19T21:06:52.552Z,20.40
2023-07-19T21:09:19.388Z,21.20
2023-07-19T21:11:46.294Z,20.40
2023-07-19T21:14:13.173Z,20.60
2023-07-19T21:16:40.068Z,20.40
2023-07-19T21:19:08.296Z,20.60
2023-07-19T21:21:35.940Z,20.40
2023-07-19T21:24:05.054Z,20.40
2023-07-19T21:26:33.611Z,20.50
2023-07-19T21:29:00.738Z,20.20
2023-07-19T21:31:28.953Z,21.10
2023-07-19T21:33:57.969Z,20.70
2023-07-19T21:36:25.496Z,20.20
2023-07-19T21:38:53.269Z,20.10
2023-07-19T21:41:20.830Z,20.00
2023-07-19T21:43:48.847Z,20.40
2023-07-19T21:46:15.964Z,19.90
2023-07-19T21:48:43.277Z,19.80
2023-07-19T21:51:11.250Z,19.80
2023-07-19T21:53:38.130Z,19.80
2023-07-19T21:56:05.211Z,19.80
2023-07-19T21:58:32.043Z,19.80
2023-07-19T22:00:58.901Z,20.10
2023-07-19T22:03:25.892Z,19.80
2023-07-19T22:05:52.969Z,19.90
2023-07-19T22:08:19.847Z,19.80
2023-07-19T22:10:46.748Z,20.30
2023-07-19T22:13:13.661Z,20.20
2023-07-19T22:15:40.698Z,20.10
2023-07-19T22:18:22.182Z,19.50
2023-07-19T22:20:50.495Z,19.50
2023-07-19T22:23:18.348Z,19.30
2023-07-19T22:25:47.280Z,19.30
2023-07-19T22:28:14.804Z,19.30
2023-07-19T22:30:41.878Z,19.30
2023-07-19T22:33:09.346Z,19.30
2023-07-19T22:35:36.398Z,19.20
2023-07-19T22:38:03.332Z,19.10
2023-07-19T22:40:30.860Z,19.20
2023-07-19T22:42:58.299Z,19.00
2023-07-19T22:45:25.066Z,18.90
2023-07-19T22:47:52.020Z,19.00
2023-07-19T22:50:18.878Z,19.50
2023-07-19T22:52:50.747Z,19.10
2023-07-19T22:55:23.412Z,19.30
2023-07-19T22:57:51.742Z,18.80
2023-07-19T23:00:19.299Z,18.90
2023-07-19T23:02:49.748Z,18.60
2023-07-19T23:05:17.561Z,18.60
2023-07-19T23:07:44.605Z,18.80
2023-07-19T23:10:12.196Z,18.50
2023-07-19T23:12:39.793Z,18.50
2023-07-19T23:15:07.160Z,19.30
2023-07-19T23:17:34.200Z,18.40
2023-07-19T23:20:01.230Z,19.00
2023-07-19T23:22:28.162Z,19.40
2023-07-19T23:24:55.066Z,18.40
2023-07-19T23:27:21.931Z,18.50
2023-07-19T23:29:54.992Z,18.30
2023-07-19T23:32:23.402Z,18.70
2023-07-19T23:34:53.568Z,18.90
2023-07-19T23:37:20.406Z,18.60
2023-07-19T23:39:47.406Z,18.70
2023-07-19T23:42:14.337Z,18.20
2023-07-19T23:44:41.272Z,18.20
2023-07-19T23:47:09.419Z,18.10
2023-07-19T23:49:37.376Z,18.10
2023-07-19T23:52:05.306Z,18.10
2023-07-19T23:54:32.406Z,18.20
2023-07-19T23:56:59.408Z,18.40
2023-07-19T23:59:26.470Z,18.00
